sensor_id;sensor_type;location;lat;lon;timestamp;P1;durP1;ratioP1;P2;durP2;ratioP2
59930;SDS011;45790;51.538;6.736;2023-06-10T00:02:13;10.48;;;5.38;;
59930;SDS011;45790;51.538;6.736;2023-06-10T00:04:38;8.95;;;5.00;;
59930;SDS011;45790;51.538;6.736;2023-06-10T00:07:04;6.43;;;4.82;;
59930;SDS011;45790;51.538;6.736;2023-06-10T00:09:33;11.63;;;5.07;;
59930;SDS011;45790;51.538;6.736;2023-06-10T00:11:58;10.53;;;5.10;;
59930;SDS011;45790;51.538;6.736;2023-06-10T00:14:25;6.75;;;4.90;;
59930;SDS011;45790;51.538;6.736;2023-06-10T00:16:50;8.30;;;5.03;;
59930;SDS011;45790;51.538;6.736;2023-06-10T00:19:17;9.43;;;5.10;;
59930;SDS011;45790;51.538;6.736;2023-06-10T00:21:43;7.70;;;5.15;;
59930;SDS011;45790;51.538;6.736;2023-06-10T00:24:10;9.88;;;5.55;;
59930;SDS011;45790;51.538;6.736;2023-06-10T00:26:37;9.45;;;5.25;;
59930;SDS011;45790;51.538;6.736;2023-06-10T00:29:02;9.23;;;5.50;;
59930;SDS011;45790;51.538;6.736;2023-06-10T00:31:27;13.93;;;5.37;;
59930;SDS011;45790;51.538;6.736;2023-06-10T00:33:53;7.28;;;5.07;;
59930;SDS011;45790;51.538;6.736;2023-06-10T00:36:18;7.07;;;4.97;;
59930;SDS011;45790;51.538;6.736;2023-06-10T00:38:43;7.50;;;5.00;;
59930;SDS011;45790;51.538;6.736;2023-06-10T00:41:09;10.60;;;5.03;;
59930;SDS011;45790;51.538;6.736;2023-06-10T00:43:34;9.18;;;5.05;;
59930;SDS011;45790;51.538;6.736;2023-06-10T00:45:59;7.53;;;5.50;;
59930;SDS011;45790;51.538;6.736;2023-06-10T00:48:25;8.98;;;4.80;;
59930;SDS011;45790;51.538;6.736;2023-06-10T00:50:50;6.07;;;4.95;;
59930;SDS011;45790;51.538;6.736;2023-06-10T00:53:16;7.45;;;5.85;;
59930;SDS011;45790;51.538;6.736;2023-06-10T00:55:41;8.23;;;5.90;;
59930;SDS011;45790;51.538;6.736;2023-06-10T00:58:06;8.48;;;5.30;;
59930;SDS011;45790;51.538;6.736;2023-06-10T01:00:32;9.35;;;5.55;;
59930;SDS011;45790;51.538;6.736;2023-06-10T01:02:57;8.33;;;5.57;;
59930;SDS011;45790;51.538;6.736;2023-06-10T01:05:23;8.00;;;5.93;;
59930;SDS011;45790;51.538;6.736;2023-06-10T01:10:20;9.10;;;5.90;;
59930;SDS011;45790;51.538;6.736;2023-06-10T01:12:49;6.85;;;5.40;;
59930;SDS011;45790;51.538;6.736;2023-06-10T01:15:17;8.43;;;5.53;;
59930;SDS011;45790;51.538;6.736;2023-06-10T01:17:55;8.07;;;5.80;;
59930;SDS011;45790;51.538;6.736;2023-06-10T01:20:22;7.07;;;5.55;;
59930;SDS011;45790;51.538;6.736;2023-06-10T01:22:49;8.35;;;6.07;;
59930;SDS011;45790;51.538;6.736;2023-06-10T01:25:14;9.70;;;5.93;;
59930;SDS011;45790;51.538;6.736;2023-06-10T01:27:39;10.13;;;5.78;;
59930;SDS011;45790;51.538;6.736;2023-06-10T01:30:10;8.15;;;5.93;;
59930;SDS011;45790;51.538;6.736;2023-06-10T01:32:43;7.57;;;6.25;;
59930;SDS011;45790;51.538;6.736;2023-06-10T01:35:09;9.18;;;6.30;;
59930;SDS011;45790;51.538;6.736;2023-06-10T01:37:35;10.77;;;6.82;;
59930;SDS011;45790;51.538;6.736;2023-06-10T01:40:02;8.88;;;6.68;;
59930;SDS011;45790;51.538;6.736;2023-06-10T01:42:30;8.48;;;6.30;;
59930;SDS011;45790;51.538;6.736;2023-06-10T01:44:56;9.93;;;6.78;;
59930;SDS011;45790;51.538;6.736;2023-06-10T01:47:22;12.35;;;7.18;;
59930;SDS011;45790;51.538;6.736;2023-06-10T01:49:47;8.07;;;6.77;;
59930;SDS011;45790;51.538;6.736;2023-06-10T01:52:12;8.80;;;6.53;;
59930;SDS011;45790;51.538;6.736;2023-06-10T01:54:38;8.90;;;6.57;;
59930;SDS011;45790;51.538;6.736;2023-06-10T01:57:03;8.48;;;6.57;;
59930;SDS011;45790;51.538;6.736;2023-06-10T01:59:28;8.98;;;6.50;;
59930;SDS011;45790;51.538;6.736;2023-06-10T02:01:53;9.10;;;7.10;;
59930;SDS011;45790;51.538;6.736;2023-06-10T02:04:19;12.15;;;7.10;;
59930;SDS011;45790;51.538;6.736;2023-06-10T02:06:44;11.20;;;7.43;;
59930;SDS011;45790;51.538;6.736;2023-06-10T02:09:10;8.93;;;6.85;;
59930;SDS011;45790;51.538;6.736;2023-06-10T02:11:35;9.32;;;7.20;;
59930;SDS011;45790;51.538;6.736;2023-06-10T02:14:00;8.47;;;6.80;;
59930;SDS011;45790;51.538;6.736;2023-06-10T02:16:25;9.37;;;6.60;;
59930;SDS011;45790;51.538;6.736;2023-06-10T02:18:51;8.93;;;6.93;;
59930;SDS011;45790;51.538;6.736;2023-06-10T02:21:16;9.80;;;7.20;;
59930;SDS011;45790;51.538;6.736;2023-06-10T02:23:42;13.15;;;7.50;;
59930;SDS011;45790;51.538;6.736;2023-06-10T02:26:07;11.55;;;7.72;;
59930;SDS011;45790;51.538;6.736;2023-06-10T02:28:32;8.88;;;7.28;;
59930;SDS011;45790;51.538;6.736;2023-06-10T02:30:57;10.63;;;7.10;;
59930;SDS011;45790;51.538;6.736;2023-06-10T02:33:24;11.30;;;7.65;;
59930;SDS011;45790;51.538;6.736;2023-06-10T02:35:49;11.15;;;7.18;;
59930;SDS011;45790;51.538;6.736;2023-06-10T02:38:14;8.95;;;7.82;;
59930;SDS011;45790;51.538;6.736;2023-06-10T02:40:39;9.60;;;7.40;;
59930;SDS011;45790;51.538;6.736;2023-06-10T02:43:05;8.80;;;7.40;;
59930;SDS011;45790;51.538;6.736;2023-06-10T02:45:30;10.13;;;7.07;;
59930;SDS011;45790;51.538;6.736;2023-06-10T02:47:55;11.13;;;7.80;;
59930;SDS011;45790;51.538;6.736;2023-06-10T02:50:20;9.77;;;7.45;;
59930;SDS011;45790;51.538;6.736;2023-06-10T02:52:46;10.93;;;7.70;;
59930;SDS011;45790;51.538;6.736;2023-06-10T02:55:11;10.05;;;7.43;;
59930;SDS011;45790;51.538;6.736;2023-06-10T02:57:36;10.67;;;7.63;;
59930;SDS011;45790;51.538;6.736;2023-06-10T03:00:02;11.13;;;8.10;;
59930;SDS011;45790;51.538;6.736;2023-06-10T03:02:29;10.68;;;7.68;;
59930;SDS011;45790;51.538;6.736;2023-06-10T03:04:56;12.45;;;7.90;;
59930;SDS011;45790;51.538;6.736;2023-06-10T03:07:22;13.77;;;7.38;;
59930;SDS011;45790;51.538;6.736;2023-06-10T03:09:48;12.25;;;7.57;;
59930;SDS011;45790;51.538;6.736;2023-06-10T03:12:13;10.90;;;7.50;;
59930;SDS011;45790;51.538;6.736;2023-06-10T03:14:38;11.13;;;7.82;;
59930;SDS011;45790;51.538;6.736;2023-06-10T03:17:04;8.57;;;7.35;;
59930;SDS011;45790;51.538;6.736;2023-06-10T03:19:29;9.73;;;7.50;;
59930;SDS011;45790;51.538;6.736;2023-06-10T03:22:10;15.75;;;7.97;;
59930;SDS011;45790;51.538;6.736;2023-06-10T03:24:35;10.93;;;7.80;;
59930;SDS011;45790;51.538;6.736;2023-06-10T03:27:07;10.02;;;7.80;;
59930;SDS011;45790;51.538;6.736;2023-06-10T03:29:33;10.00;;;7.80;;
59930;SDS011;45790;51.538;6.736;2023-06-10T03:31:58;10.07;;;7.90;;
59930;SDS011;45790;51.538;6.736;2023-06-10T03:34:23;9.48;;;7.80;;
59930;SDS011;45790;51.538;6.736;2023-06-10T03:36:49;10.63;;;7.30;;
59930;SDS011;45790;51.538;6.736;2023-06-10T03:39:14;8.98;;;7.43;;
59930;SDS011;45790;51.538;6.736;2023-06-10T03:41:39;11.98;;;7.45;;
59930;SDS011;45790;51.538;6.736;2023-06-10T03:44:05;10.20;;;7.63;;
59930;SDS011;45790;51.538;6.736;2023-06-10T03:46:30;10.03;;;7.90;;
59930;SDS011;45790;51.538;6.736;2023-06-10T03:48:55;9.70;;;7.60;;
59930;SDS011;45790;51.538;6.736;2023-06-10T03:51:20;11.23;;;8.10;;
59930;SDS011;45790;51.538;6.736;2023-06-10T03:53:46;11.00;;;7.17;;
59930;SDS011;45790;51.538;6.736;2023-06-10T03:56:11;10.00;;;7.77;;
59930;SDS011;45790;51.538;6.736;2023-06-10T03:58:36;10.63;;;7.82;;
59930;SDS011;45790;51.538;6.736;2023-06-10T04:01:01;11.63;;;7.30;;
59930;SDS011;45790;51.538;6.736;2023-06-10T04:03:27;10.48;;;7.57;;
59930;SDS011;45790;51.538;6.736;2023-06-10T04:05:52;10.77;;;8.48;;
59930;SDS011;45790;51.538;6.736;2023-06-10T04:08:17;10.00;;;7.53;;
59930;SDS011;45790;51.538;6.736;2023-06-10T04:10:43;11.95;;;7.05;;
59930;SDS011;45790;51.538;6.736;2023-06-10T04:13:08;13.67;;;8.00;;
59930;SDS011;45790;51.538;6.736;2023-06-10T04:15:34;11.23;;;7.47;;
59930;SDS011;45790;51.538;6.736;2023-06-10T04:17:59;9.50;;;7.50;;
59930;SDS011;45790;51.538;6.736;2023-06-10T04:20:26;7.97;;;7.18;;
59930;SDS011;45790;51.538;6.736;2023-06-10T04:22:51;11.45;;;6.80;;
59930;SDS011;45790;51.538;6.736;2023-06-10T04:25:16;10.33;;;7.63;;
59930;SDS011;45790;51.538;6.736;2023-06-10T04:27:42;9.07;;;7.32;;
59930;SDS011;45790;51.538;6.736;2023-06-10T04:30:08;13.73;;;7.30;;
59930;SDS011;45790;51.538;6.736;2023-06-10T04:32:33;13.95;;;6.95;;
59930;SDS011;45790;51.538;6.736;2023-06-10T04:34:59;13.77;;;6.83;;
59930;SDS011;45790;51.538;6.736;2023-06-10T04:37:24;9.25;;;6.57;;
59930;SDS011;45790;51.538;6.736;2023-06-10T04:39:49;10.23;;;6.23;;
59930;SDS011;45790;51.538;6.736;2023-06-10T04:42:15;8.35;;;5.95;;
59930;SDS011;45790;51.538;6.736;2023-06-10T04:44:40;8.90;;;6.77;;
59930;SDS011;45790;51.538;6.736;2023-06-10T04:47:05;7.90;;;6.20;;
59930;SDS011;45790;51.538;6.736;2023-06-10T04:49:32;9.50;;;5.97;;
59930;SDS011;45790;51.538;6.736;2023-06-10T04:51:58;11.77;;;6.35;;
59930;SDS011;45790;51.538;6.736;2023-06-10T04:54:24;10.00;;;6.50;;
59930;SDS011;45790;51.538;6.736;2023-06-10T04:56:50;9.32;;;5.95;;
59930;SDS011;45790;51.538;6.736;2023-06-10T04:59:15;8.68;;;6.20;;
59930;SDS011;45790;51.538;6.736;2023-06-10T05:01:40;9.43;;;6.33;;
59930;SDS011;45790;51.538;6.736;2023-06-10T05:04:05;8.57;;;5.37;;
59930;SDS011;45790;51.538;6.736;2023-06-10T05:06:31;8.33;;;6.20;;
59930;SDS011;45790;51.538;6.736;2023-06-10T05:08:56;8.17;;;6.07;;
59930;SDS011;45790;51.538;6.736;2023-06-10T05:11:21;9.90;;;5.20;;
59930;SDS011;45790;51.538;6.736;2023-06-10T05:13:47;9.63;;;5.85;;
59930;SDS011;45790;51.538;6.736;2023-06-10T05:16:12;7.60;;;5.07;;
59930;SDS011;45790;51.538;6.736;2023-06-10T05:18:37;7.73;;;5.40;;
59930;SDS011;45790;51.538;6.736;2023-06-10T05:21:02;9.47;;;5.57;;
59930;SDS011;45790;51.538;6.736;2023-06-10T05:23:27;8.38;;;5.40;;
59930;SDS011;45790;51.538;6.736;2023-06-10T05:25:53;8.77;;;5.63;;
59930;SDS011;45790;51.538;6.736;2023-06-10T05:28:18;8.40;;;5.53;;
59930;SDS011;45790;51.538;6.736;2023-06-10T05:30:43;6.78;;;5.38;;
59930;SDS011;45790;51.538;6.736;2023-06-10T05:33:08;7.70;;;5.23;;
59930;SDS011;45790;51.538;6.736;2023-06-10T05:35:34;8.37;;;5.43;;
59930;SDS011;45790;51.538;6.736;2023-06-10T05:37:59;11.87;;;5.37;;
59930;SDS011;45790;51.538;6.736;2023-06-10T05:40:24;9.23;;;5.05;;
59930;SDS011;45790;51.538;6.736;2023-06-10T05:42:49;8.37;;;5.10;;
59930;SDS011;45790;51.538;6.736;2023-06-10T05:45:14;8.57;;;5.57;;
59930;SDS011;45790;51.538;6.736;2023-06-10T05:47:40;8.52;;;5.07;;
59930;SDS011;45790;51.538;6.736;2023-06-10T05:50:05;11.77;;;5.45;;
59930;SDS011;45790;51.538;6.736;2023-06-10T05:52:32;10.95;;;5.32;;
59930;SDS011;45790;51.538;6.736;2023-06-10T05:54:58;7.57;;;5.43;;
59930;SDS011;45790;51.538;6.736;2023-06-10T05:57:24;8.25;;;4.93;;
59930;SDS011;45790;51.538;6.736;2023-06-10T05:59:49;9.60;;;5.70;;
59930;SDS011;45790;51.538;6.736;2023-06-10T06:02:15;13.68;;;10.48;;
59930;SDS011;45790;51.538;6.736;2023-06-10T06:04:40;8.83;;;5.10;;
59930;SDS011;45790;51.538;6.736;2023-06-10T06:07:05;6.93;;;4.90;;
59930;SDS011;45790;51.538;6.736;2023-06-10T06:09:30;7.53;;;4.55;;
59930;SDS011;45790;51.538;6.736;2023-06-10T06:11:56;6.83;;;5.07;;
59930;SDS011;45790;51.538;6.736;2023-06-10T06:14:21;10.60;;;5.20;;
59930;SDS011;45790;51.538;6.736;2023-06-10T06:16:46;12.00;;;9.57;;
59930;SDS011;45790;51.538;6.736;2023-06-10T06:19:11;11.57;;;5.23;;
59930;SDS011;45790;51.538;6.736;2023-06-10T06:21:36;8.63;;;4.57;;
59930;SDS011;45790;51.538;6.736;2023-06-10T06:24:02;14.93;;;4.57;;
59930;SDS011;45790;51.538;6.736;2023-06-10T06:26:27;6.63;;;4.22;;
59930;SDS011;45790;51.538;6.736;2023-06-10T06:28:52;6.50;;;4.00;;
59930;SDS011;45790;51.538;6.736;2023-06-10T06:31:17;9.37;;;4.70;;
59930;SDS011;45790;51.538;6.736;2023-06-10T06:33:43;7.32;;;4.50;;
59930;SDS011;45790;51.538;6.736;2023-06-10T06:36:08;10.20;;;4.13;;
59930;SDS011;45790;51.538;6.736;2023-06-10T06:38:33;9.50;;;4.67;;
59930;SDS011;45790;51.538;6.736;2023-06-10T06:40:58;12.87;;;4.10;;
59930;SDS011;45790;51.538;6.736;2023-06-10T06:43:28;8.13;;;4.22;;
59930;SDS011;45790;51.538;6.736;2023-06-10T06:45:53;14.65;;;4.65;;
59930;SDS011;45790;51.538;6.736;2023-06-10T06:48:18;9.87;;;4.23;;
59930;SDS011;45790;51.538;6.736;2023-06-10T06:50:43;8.93;;;4.37;;
59930;SDS011;45790;51.538;6.736;2023-06-10T06:53:08;9.13;;;4.90;;
59930;SDS011;45790;51.538;6.736;2023-06-10T06:55:33;17.97;;;15.63;;
59930;SDS011;45790;51.538;6.736;2023-06-10T06:57:59;7.53;;;4.70;;
59930;SDS011;45790;51.538;6.736;2023-06-10T07:00:27;9.07;;;4.28;;
59930;SDS011;45790;51.538;6.736;2023-06-10T07:02:52;9.27;;;4.33;;
59930;SDS011;45790;51.538;6.736;2023-06-10T07:05:18;8.70;;;4.43;;
59930;SDS011;45790;51.538;6.736;2023-06-10T07:07:43;7.03;;;4.10;;
59930;SDS011;45790;51.538;6.736;2023-06-10T07:10:08;7.50;;;4.00;;
59930;SDS011;45790;51.538;6.736;2023-06-10T07:12:33;8.32;;;4.30;;
59930;SDS011;45790;51.538;6.736;2023-06-10T07:14:58;6.53;;;3.93;;
59930;SDS011;45790;51.538;6.736;2023-06-10T07:17:24;7.68;;;4.38;;
59930;SDS011;45790;51.538;6.736;2023-06-10T07:19:49;7.13;;;4.50;;
59930;SDS011;45790;51.538;6.736;2023-06-10T07:22:16;11.65;;;4.60;;
59930;SDS011;45790;51.538;6.736;2023-06-10T07:27:26;9.88;;;4.00;;
59930;SDS011;45790;51.538;6.736;2023-06-10T07:29:51;9.50;;;3.80;;
59930;SDS011;45790;51.538;6.736;2023-06-10T07:32:16;5.82;;;3.95;;
59930;SDS011;45790;51.538;6.736;2023-06-10T07:34:41;7.07;;;4.40;;
59930;SDS011;45790;51.538;6.736;2023-06-10T07:37:07;6.20;;;4.20;;
59930;SDS011;45790;51.538;6.736;2023-06-10T07:39:32;8.40;;;4.32;;
59930;SDS011;45790;51.538;6.736;2023-06-10T07:41:57;9.07;;;4.00;;
59930;SDS011;45790;51.538;6.736;2023-06-10T07:44:23;8.13;;;4.13;;
59930;SDS011;45790;51.538;6.736;2023-06-10T07:46:48;8.02;;;4.20;;
59930;SDS011;45790;51.538;6.736;2023-06-10T07:49:13;8.05;;;4.00;;
59930;SDS011;45790;51.538;6.736;2023-06-10T07:51:38;6.87;;;4.00;;
59930;SDS011;45790;51.538;6.736;2023-06-10T07:54:03;6.23;;;3.73;;
59930;SDS011;45790;51.538;6.736;2023-06-10T07:56:28;8.40;;;4.17;;
59930;SDS011;45790;51.538;6.736;2023-06-10T07:58:54;8.37;;;4.23;;
59930;SDS011;45790;51.538;6.736;2023-06-10T08:01:19;8.40;;;4.10;;
59930;SDS011;45790;51.538;6.736;2023-06-10T08:03:44;6.80;;;3.93;;
59930;SDS011;45790;51.538;6.736;2023-06-10T08:06:09;7.27;;;4.43;;
59930;SDS011;45790;51.538;6.736;2023-06-10T08:08:36;6.60;;;3.80;;
59930;SDS011;45790;51.538;6.736;2023-06-10T08:11:06;13.43;;;4.43;;
59930;SDS011;45790;51.538;6.736;2023-06-10T08:13:32;9.70;;;4.32;;
59930;SDS011;45790;51.538;6.736;2023-06-10T08:15:57;8.97;;;4.20;;
59930;SDS011;45790;51.538;6.736;2023-06-10T08:18:22;9.07;;;4.30;;
59930;SDS011;45790;51.538;6.736;2023-06-10T08:20:47;10.20;;;4.00;;
59930;SDS011;45790;51.538;6.736;2023-06-10T08:23:13;9.70;;;4.13;;
59930;SDS011;45790;51.538;6.736;2023-06-10T08:25:38;7.40;;;4.15;;
59930;SDS011;45790;51.538;6.736;2023-06-10T08:28:04;7.23;;;3.70;;
59930;SDS011;45790;51.538;6.736;2023-06-10T08:30:29;8.30;;;4.10;;
59930;SDS011;45790;51.538;6.736;2023-06-10T08:32:55;8.65;;;4.00;;
59930;SDS011;45790;51.538;6.736;2023-06-10T08:35:20;6.32;;;3.80;;
59930;SDS011;45790;51.538;6.736;2023-06-10T08:37:45;7.38;;;4.07;;
59930;SDS011;45790;51.538;6.736;2023-06-10T08:40:11;10.13;;;4.07;;
59930;SDS011;45790;51.538;6.736;2023-06-10T08:42:40;7.65;;;3.85;;
59930;SDS011;45790;51.538;6.736;2023-06-10T08:45:08;9.25;;;4.20;;
59930;SDS011;45790;51.538;6.736;2023-06-10T08:47:37;7.40;;;3.85;;
59930;SDS011;45790;51.538;6.736;2023-06-10T08:50:04;12.93;;;4.45;;
59930;SDS011;45790;51.538;6.736;2023-06-10T08:52:34;9.82;;;3.83;;
59930;SDS011;45790;51.538;6.736;2023-06-10T08:55:00;8.85;;;3.78;;
59930;SDS011;45790;51.538;6.736;2023-06-10T08:57:27;7.47;;;4.05;;
59930;SDS011;45790;51.538;6.736;2023-06-10T08:59:53;7.00;;;4.05;;
59930;SDS011;45790;51.538;6.736;2023-06-10T09:02:19;7.55;;;4.03;;
59930;SDS011;45790;51.538;6.736;2023-06-10T09:04:46;7.13;;;4.15;;
59930;SDS011;45790;51.538;6.736;2023-06-10T09:07:11;7.90;;;4.07;;
59930;SDS011;45790;51.538;6.736;2023-06-10T09:09:37;9.35;;;4.43;;
59930;SDS011;45790;51.538;6.736;2023-06-10T09:12:03;10.93;;;4.10;;
59930;SDS011;45790;51.538;6.736;2023-06-10T09:14:28;6.72;;;4.38;;
59930;SDS011;45790;51.538;6.736;2023-06-10T09:16:53;7.20;;;4.22;;
59930;SDS011;45790;51.538;6.736;2023-06-10T09:19:21;6.55;;;4.25;;
59930;SDS011;45790;51.538;6.736;2023-06-10T09:21:47;10.15;;;4.15;;
59930;SDS011;45790;51.538;6.736;2023-06-10T09:24:12;9.57;;;3.80;;
59930;SDS011;45790;51.538;6.736;2023-06-10T09:26:37;7.45;;;4.60;;
59930;SDS011;45790;51.538;6.736;2023-06-10T09:29:06;9.63;;;4.70;;
59930;SDS011;45790;51.538;6.736;2023-06-10T09:31:32;8.57;;;4.43;;
59930;SDS011;45790;51.538;6.736;2023-06-10T09:36:51;5.95;;;3.70;;
59930;SDS011;45790;51.538;6.736;2023-06-10T09:39:17;6.70;;;4.00;;
59930;SDS011;45790;51.538;6.736;2023-06-10T09:41:43;8.07;;;4.20;;
59930;SDS011;45790;51.538;6.736;2023-06-10T09:44:20;13.73;;;4.13;;
59930;SDS011;45790;51.538;6.736;2023-06-10T09:46:47;8.90;;;4.18;;
59930;SDS011;45790;51.538;6.736;2023-06-10T09:49:12;11.90;;;4.28;;
59930;SDS011;45790;51.538;6.736;2023-06-10T09:51:41;9.23;;;4.30;;
59930;SDS011;45790;51.538;6.736;2023-06-10T09:54:13;7.60;;;4.40;;
59930;SDS011;45790;51.538;6.736;2023-06-10T09:56:38;5.80;;;4.10;;
59930;SDS011;45790;51.538;6.736;2023-06-10T09:59:07;12.57;;;4.27;;
59930;SDS011;45790;51.538;6.736;2023-06-10T10:01:32;7.63;;;4.20;;
59930;SDS011;45790;51.538;6.736;2023-06-10T10:03:58;8.18;;;4.15;;
59930;SDS011;45790;51.538;6.736;2023-06-10T10:06:24;8.27;;;4.13;;
59930;SDS011;45790;51.538;6.736;2023-06-10T10:08:50;8.45;;;4.20;;
59930;SDS011;45790;51.538;6.736;2023-06-10T10:11:19;9.07;;;4.38;;
59930;SDS011;45790;51.538;6.736;2023-06-10T10:13:47;9.18;;;4.60;;
59930;SDS011;45790;51.538;6.736;2023-06-10T10:16:35;8.65;;;4.45;;
59930;SDS011;45790;51.538;6.736;2023-06-10T10:19:03;9.13;;;4.20;;
59930;SDS011;45790;51.538;6.736;2023-06-10T10:21:31;6.55;;;4.13;;
59930;SDS011;45790;51.538;6.736;2023-06-10T10:24:15;7.45;;;3.67;;
59930;SDS011;45790;51.538;6.736;2023-06-10T10:26:41;6.57;;;4.13;;
59930;SDS011;45790;51.538;6.736;2023-06-10T10:29:10;5.90;;;4.10;;
59930;SDS011;45790;51.538;6.736;2023-06-10T10:31:36;7.65;;;4.30;;
59930;SDS011;45790;51.538;6.736;2023-06-10T10:34:04;8.93;;;4.15;;
59930;SDS011;45790;51.538;6.736;2023-06-10T10:36:30;6.80;;;3.92;;
59930;SDS011;45790;51.538;6.736;2023-06-10T10:38:56;6.72;;;4.20;;
59930;SDS011;45790;51.538;6.736;2023-06-10T10:41:22;9.15;;;4.20;;
59930;SDS011;45790;51.538;6.736;2023-06-10T10:43:48;7.90;;;4.18;;
59930;SDS011;45790;51.538;6.736;2023-06-10T10:46:15;6.93;;;4.32;;
59930;SDS011;45790;51.538;6.736;2023-06-10T10:48:41;8.50;;;4.40;;
59930;SDS011;45790;51.538;6.736;2023-06-10T10:53:41;7.00;;;4.18;;
59930;SDS011;45790;51.538;6.736;2023-06-10T10:56:13;5.65;;;3.90;;
59930;SDS011;45790;51.538;6.736;2023-06-10T10:58:38;9.30;;;4.10;;
59930;SDS011;45790;51.538;6.736;2023-06-10T11:01:12;7.60;;;4.28;;
59930;SDS011;45790;51.538;6.736;2023-06-10T11:03:43;7.50;;;4.30;;
59930;SDS011;45790;51.538;6.736;2023-06-10T11:06:13;8.15;;;4.40;;
59930;SDS011;45790;51.538;6.736;2023-06-10T11:11:20;5.40;;;3.92;;
59930;SDS011;45790;51.538;6.736;2023-06-10T11:16:27;7.95;;;3.92;;
59930;SDS011;45790;51.538;6.736;2023-06-10T11:18:56;4.32;;;3.70;;
59930;SDS011;45790;51.538;6.736;2023-06-10T11:21:24;12.38;;;4.10;;
59930;SDS011;45790;51.538;6.736;2023-06-10T11:23:51;7.03;;;4.47;;
59930;SDS011;45790;51.538;6.736;2023-06-10T11:31:24;5.73;;;4.43;;
59930;SDS011;45790;51.538;6.736;2023-06-10T11:33:52;6.40;;;4.30;;
59930;SDS011;45790;51.538;6.736;2023-06-10T11:36:17;7.03;;;4.60;;
59930;SDS011;45790;51.538;6.736;2023-06-10T11:38:42;7.50;;;4.33;;
59930;SDS011;45790;51.538;6.736;2023-06-10T11:41:08;8.50;;;4.28;;
59930;SDS011;45790;51.538;6.736;2023-06-10T11:43:33;11.07;;;4.60;;
59930;SDS011;45790;51.538;6.736;2023-06-10T11:45:59;10.07;;;4.40;;
59930;SDS011;45790;51.538;6.736;2023-06-10T11:48:25;7.97;;;4.07;;
59930;SDS011;45790;51.538;6.736;2023-06-10T11:50:53;7.78;;;3.90;;
59930;SDS011;45790;51.538;6.736;2023-06-10T11:53:18;7.90;;;4.20;;
59930;SDS011;45790;51.538;6.736;2023-06-10T11:55:44;9.05;;;4.32;;
59930;SDS011;45790;51.538;6.736;2023-06-10T11:58:13;5.70;;;4.00;;
59930;SDS011;45790;51.538;6.736;2023-06-10T12:03:10;6.60;;;4.10;;
59930;SDS011;45790;51.538;6.736;2023-06-10T12:05:35;6.47;;;3.72;;
59930;SDS011;45790;51.538;6.736;2023-06-10T12:08:10;6.07;;;4.07;;
59930;SDS011;45790;51.538;6.736;2023-06-10T12:10:39;8.65;;;3.95;;
59930;SDS011;45790;51.538;6.736;2023-06-10T12:13:04;11.80;;;4.10;;
59930;SDS011;45790;51.538;6.736;2023-06-10T12:15:30;6.43;;;3.90;;
59930;SDS011;45790;51.538;6.736;2023-06-10T12:17:55;6.70;;;4.00;;
59930;SDS011;45790;51.538;6.736;2023-06-10T12:20:30;6.63;;;3.80;;
59930;SDS011;45790;51.538;6.736;2023-06-10T12:22:59;7.03;;;4.25;;
59930;SDS011;45790;51.538;6.736;2023-06-10T12:25:25;4.60;;;3.53;;
59930;SDS011;45790;51.538;6.736;2023-06-10T12:27:52;5.10;;;3.92;;
59930;SDS011;45790;51.538;6.736;2023-06-10T12:30:22;7.03;;;4.25;;
59930;SDS011;45790;51.538;6.736;2023-06-10T12:32:47;7.55;;;4.43;;
59930;SDS011;45790;51.538;6.736;2023-06-10T12:35:16;6.20;;;4.25;;
59930;SDS011;45790;51.538;6.736;2023-06-10T12:37:43;5.78;;;3.80;;
59930;SDS011;45790;51.538;6.736;2023-06-10T12:40:19;8.10;;;4.22;;
59930;SDS011;45790;51.538;6.736;2023-06-10T12:42:50;8.35;;;4.15;;
59930;SDS011;45790;51.538;6.736;2023-06-10T12:45:15;8.80;;;4.10;;
59930;SDS011;45790;51.538;6.736;2023-06-10T12:47:51;7.60;;;4.15;;
59930;SDS011;45790;51.538;6.736;2023-06-10T12:50:16;8.65;;;4.13;;
59930;SDS011;45790;51.538;6.736;2023-06-10T12:52:41;9.33;;;3.80;;
59930;SDS011;45790;51.538;6.736;2023-06-10T12:55:07;7.43;;;4.25;;
59930;SDS011;45790;51.538;6.736;2023-06-10T12:57:32;7.82;;;4.30;;
59930;SDS011;45790;51.538;6.736;2023-06-10T12:59:57;6.23;;;4.00;;
59930;SDS011;45790;51.538;6.736;2023-06-10T13:02:28;9.85;;;4.20;;
59930;SDS011;45790;51.538;6.736;2023-06-10T13:04:53;8.53;;;4.37;;
59930;SDS011;45790;51.538;6.736;2023-06-10T13:07:18;6.77;;;4.40;;
59930;SDS011;45790;51.538;6.736;2023-06-10T13:09:44;7.97;;;4.33;;
59930;SDS011;45790;51.538;6.736;2023-06-10T13:12:09;5.57;;;4.28;;
59930;SDS011;45790;51.538;6.736;2023-06-10T13:14:35;5.22;;;4.18;;
59930;SDS011;45790;51.538;6.736;2023-06-10T13:19:37;10.18;;;4.60;;
59930;SDS011;45790;51.538;6.736;2023-06-10T13:22:02;5.53;;;4.40;;
59930;SDS011;45790;51.538;6.736;2023-06-10T13:24:27;7.15;;;4.25;;
59930;SDS011;45790;51.538;6.736;2023-06-10T13:26:53;7.93;;;4.07;;
59930;SDS011;45790;51.538;6.736;2023-06-10T13:29:19;9.73;;;4.15;;
59930;SDS011;45790;51.538;6.736;2023-06-10T13:31:44;10.53;;;4.67;;
59930;SDS011;45790;51.538;6.736;2023-06-10T13:34:10;5.90;;;3.87;;
59930;SDS011;45790;51.538;6.736;2023-06-10T13:36:35;8.32;;;4.47;;
59930;SDS011;45790;51.538;6.736;2023-06-10T13:39:00;7.73;;;4.13;;
59930;SDS011;45790;51.538;6.736;2023-06-10T13:41:26;13.73;;;4.30;;
59930;SDS011;45790;51.538;6.736;2023-06-10T13:43:53;8.25;;;3.97;;
59930;SDS011;45790;51.538;6.736;2023-06-10T13:46:19;8.50;;;4.30;;
59930;SDS011;45790;51.538;6.736;2023-06-10T13:48:46;8.85;;;4.15;;
59930;SDS011;45790;51.538;6.736;2023-06-10T13:51:12;8.00;;;4.18;;
59930;SDS011;45790;51.538;6.736;2023-06-10T13:53:37;7.53;;;4.50;;
59930;SDS011;45790;51.538;6.736;2023-06-10T13:56:02;6.13;;;4.13;;
59930;SDS011;45790;51.538;6.736;2023-06-10T13:58:27;6.80;;;4.60;;
59930;SDS011;45790;51.538;6.736;2023-06-10T14:00:52;7.70;;;3.97;;
59930;SDS011;45790;51.538;6.736;2023-06-10T14:03:18;7.68;;;4.07;;
59930;SDS011;45790;51.538;6.736;2023-06-10T14:05:44;9.43;;;4.55;;
59930;SDS011;45790;51.538;6.736;2023-06-10T14:08:10;9.73;;;4.30;;
59930;SDS011;45790;51.538;6.736;2023-06-10T14:10:35;7.35;;;4.00;;
59930;SDS011;45790;51.538;6.736;2023-06-10T14:13:00;8.02;;;4.93;;
59930;SDS011;45790;51.538;6.736;2023-06-10T14:15:25;6.13;;;3.97;;
59930;SDS011;45790;51.538;6.736;2023-06-10T14:17:51;8.20;;;4.25;;
59930;SDS011;45790;51.538;6.736;2023-06-10T14:20:16;10.90;;;4.30;;
59930;SDS011;45790;51.538;6.736;2023-06-10T14:22:41;5.23;;;4.07;;
59930;SDS011;45790;51.538;6.736;2023-06-10T14:25:06;6.47;;;4.17;;
59930;SDS011;45790;51.538;6.736;2023-06-10T14:27:32;9.82;;;6.63;;
59930;SDS011;45790;51.538;6.736;2023-06-10T14:29:57;10.63;;;4.30;;
59930;SDS011;45790;51.538;6.736;2023-06-10T14:32:22;8.27;;;5.63;;
59930;SDS011;45790;51.538;6.736;2023-06-10T14:34:47;5.87;;;3.90;;
59930;SDS011;45790;51.538;6.736;2023-06-10T14:37:12;6.97;;;4.17;;
59930;SDS011;45790;51.538;6.736;2023-06-10T14:39:38;6.10;;;4.23;;
59930;SDS011;45790;51.538;6.736;2023-06-10T14:42:03;7.60;;;4.63;;
59930;SDS011;45790;51.538;6.736;2023-06-10T14:44:28;8.65;;;4.13;;
59930;SDS011;45790;51.538;6.736;2023-06-10T14:46:54;7.05;;;4.20;;
59930;SDS011;45790;51.538;6.736;2023-06-10T14:49:19;8.95;;;4.10;;
59930;SDS011;45790;51.538;6.736;2023-06-10T14:51:45;6.07;;;4.23;;
59930;SDS011;45790;51.538;6.736;2023-06-10T14:54:10;6.88;;;4.35;;
59930;SDS011;45790;51.538;6.736;2023-06-10T14:56:35;7.03;;;4.28;;
59930;SDS011;45790;51.538;6.736;2023-06-10T14:59:01;6.78;;;5.05;;
59930;SDS011;45790;51.538;6.736;2023-06-10T15:01:26;8.90;;;4.00;;
59930;SDS011;45790;51.538;6.736;2023-06-10T15:03:51;5.40;;;4.20;;
59930;SDS011;45790;51.538;6.736;2023-06-10T15:06:16;5.63;;;4.40;;